Bookmark and Share
Track history (hours):
 

Leon

Last reported at 2014-Apr-17 06:31 UTC. Time now 2014-Apr-17 09:41 UTC.
Position N 54°50' E 016°59'.

Length 95 m; draft 6.1 m.

Type: Ship (hazmat cat C). MMSI: 636015519.

NotesDate/timePositionNaut miles runAvg speedWind from/ knotsBaromVisibWave heightAir tempDewpointWater temp
2014-Apr-17 06:31N 54°50' E 016°59'8311.1
2014-Apr-16 23:04N 54°34' E 014°38'2 0.6
2014-Apr-16 19:32N 54°32' E 014°36'1 0.2
2014-Apr-16 14:09N 54°33' E 014°36'0 0.4
2014-Apr-16 13:28N 54°34' E 014°36'8 3.7
2014-Apr-16 11:25N 54°36' E 014°23'1011.5
2014-Apr-16 10:33N 54°39' E 014°07'1111.6
2014-Apr-16 09:34N 54°43' E 013°49'1211.6
2014-Apr-16 08:34N 54°48' E 013°30'1110.8
2014-Apr-16 07:34N 54°50' E 013°12'1111.2
2014-Apr-16 06:33N 54°47' E 012°53'1111.0
2014-Apr-16 05:33N 54°41' E 012°37'1212.1
2014-Apr-16 04:33N 54°34' E 012°19'1111.4
2014-Apr-16 03:34N 54°25' E 012°09'1212.0
2014-Apr-16 02:33N 54°25' E 011°48'1411.8
2014-Apr-16 01:20N 54°30' E 011°25'75 7.5
2014-Apr-15 15:20N 54°09' E 009°22'6 8.0
2014-Apr-15 14:33N 54°03' E 009°19'8 4.2
2014-Apr-15 12:34N 53°56' E 009°12'4 3.9
2014-Apr-15 11:34N 53°53' E 009°07'1010.3
2014-Apr-15 10:34N 53°50' E 008°51'1211.9
2014-Apr-15 09:34N 53°58' E 008°35'1111.4
2014-Apr-15 08:34N 53°60' E 008°16'1010.4
2014-Apr-15 07:33N 53°58' E 007°58'1111.3
2014-Apr-15 06:34N 53°56' E 007°39'1110.5
2014-Apr-15 05:34N 53°54' E 007°22'49 8.2
2014-Apr-14 23:34N 53°41' E 006°02'8 7.8
2014-Apr-14 22:34N 53°39' E 005°49'8 8.0
2014-Apr-14 21:34N 53°36' E 005°37'9 8.5
2014-Apr-14 20:33N 53°33' E 005°23'9 8.8
2014-Apr-14 19:34N 53°30' E 005°09'9 9.3
2014-Apr-14 18:34N 53°27' E 004°55'82 8.2
2014-Apr-14 08:33N 52°14' E 003°52'6 6.4
2014-Apr-14 07:34N 52°08' E 003°54'6 6.4
2014-Apr-14 06:33N 52°02' E 003°59'29 3.5
2014-Apr-13 22:29N 51°47' E 004°38'0 0.0
2014-Apr-13 21:32N 51°47' E 004°38'0 0.0
2014-Apr-13 20:26N 51°47' E 004°38'0 0.0
2014-Apr-13 19:26N 51°47' E 004°38'0 0.0
2014-Apr-13 18:32N 51°47' E 004°38'0 0.0
2014-Apr-13 17:29N 51°47' E 004°38'0 0.0
2014-Apr-13 16:29N 51°47' E 004°38'0 0.0
2014-Apr-13 15:32N 51°47' E 004°38'0 0.0
2014-Apr-13 14:32N 51°47' E 004°38'0 0.0
2014-Apr-13 13:29N 51°47' E 004°38'0 0.0
2014-Apr-13 12:32N 51°47' E 004°38'0 0.0
2014-Apr-13 11:32N 51°47' E 004°38'0 0.0
2014-Apr-13 10:29N 51°47' E 004°38'0 0.0
2014-Apr-13 09:29N 51°47' E 004°38'0 0.0
2014-Apr-13 06:28N 51°47' E 004°38'0 0.0
2014-Apr-13 01:33N 51°47' E 004°38'3 3.3
2014-Apr-13 00:33N 51°49' E 004°34'9 9.3
2014-Apr-12 23:33N 51°53' E 004°20'7 7.4
2014-Apr-12 22:33N 51°57' E 004°10'10 9.6
2014-Apr-12 21:33N 52°00' E 003°55'13 2.5
2014-Apr-12 16:24N 52°10' E 003°43'0 0.0
2014-Apr-12 10:09N 52°10' E 003°43'0 0.1
2014-Apr-12 09:09N 52°10' E 003°43'0 0.1
2014-Apr-12 08:21N 52°10' E 003°43'0 0.0
2014-Apr-11 21:30N 52°10' E 003°43'0 0.0
2014-Apr-11 20:18N 52°10' E 003°43'0 0.0
2014-Apr-11 08:24N 52°10' E 003°43'0 0.0
2014-Apr-11 07:33N 52°10' E 003°43'0 0.0
2014-Apr-11 06:24N 52°10' E 003°43'0 0.0
2014-Apr-11 05:30N 52°10' E 003°43'2 1.5
2014-Apr-11 04:19N 52°12' E 003°44'8 9.3
2014-Apr-11 03:25N 52°20' E 003°48'8 8.8
2014-Apr-11 02:28N 52°28' E 003°51'7 7.2
2014-Apr-11 01:31N 52°31' E 004°01'8 8.3
2014-Apr-11 00:33N 52°31' E 004°14'9 8.6
2014-Apr-10 23:33N 52°29' E 004°27'5 5.3
2014-Apr-10 22:34N 52°28' E 004°36'8 7.8
2014-Apr-10 21:34N 52°25' E 004°48'1 0.1
2014-Apr-10 09:06N 52°25' E 004°50'0 0.0
2014-Apr-10 08:33N 52°25' E 004°50'5 5.4
2014-Apr-10 07:33N 52°27' E 004°42'5 4.7
2014-Apr-10 06:33N 52°28' E 004°34'8 8.0
2014-Apr-10 05:33N 52°28' E 004°21'9 8.8
2014-Apr-10 04:33N 52°31' E 004°08'1212.0
2014-Apr-10 03:33N 52°42' E 003°59'1111.4
2014-Apr-10 02:33N 52°53' E 003°59'438 8.9
2014-Apr-08 01:13N 59°04' E 010°58'  

Dump ship's entire track history

sailing weather and tide predictions

Leon — D5BH4 — position and weather